createdAt,value
2022-09-26T00:00:36.763Z,32.40
2022-09-26T00:03:03.232Z,32.10
2022-09-26T00:05:32.819Z,34.80
2022-09-26T00:07:59.359Z,27.70
2022-09-26T00:10:25.867Z,30.20
2022-09-26T00:12:52.335Z,27.80
2022-09-26T00:15:18.881Z,30.80
2022-09-26T00:17:45.321Z,26.40
2022-09-26T00:20:12.063Z,25.80
2022-09-26T00:22:38.509Z,25.10
2022-09-26T00:25:05.438Z,26.20
2022-09-26T00:27:32.021Z,24.30
2022-09-26T00:29:58.551Z,24.60
2022-09-26T00:32:25.536Z,24.10
2022-09-26T00:34:52.083Z,26.40
2022-09-26T00:37:18.463Z,27.90
2022-09-26T00:39:44.935Z,24.00
2022-09-26T00:42:14.850Z,24.20
2022-09-26T00:44:59.733Z,27.50
2022-09-26T00:47:36.560Z,28.50
2022-09-26T00:50:06.611Z,31.50
2022-09-26T00:52:38.707Z,27.40
2022-09-26T00:55:07.284Z,28.90
2022-09-26T00:57:36.904Z,27.00
2022-09-26T01:00:06.561Z,28.40
2022-09-26T01:02:33.207Z,32.10
2022-09-26T01:05:00.118Z,31.70
2022-09-26T01:07:27.479Z,30.80
2022-09-26T01:09:54.282Z,32.40
2022-09-26T01:12:21.080Z,29.70
2022-09-26T01:14:48.540Z,27.70
2022-09-26T01:17:15.501Z,27.20
2022-09-26T01:20:00.484Z,28.30
2022-09-26T01:22:39.192Z,28.10
2022-09-26T01:25:05.551Z,28.60
2022-09-26T01:27:44.173Z,26.50
2022-09-26T01:30:10.604Z,26.80
2022-09-26T01:32:49.246Z,27.50
2022-09-26T01:35:27.748Z,26.60
2022-09-26T01:38:00.233Z,29.50
2022-09-26T01:40:53.738Z,27.50
2022-09-26T01:43:24.237Z,26.80
2022-09-26T01:45:53.527Z,27.60
2022-09-26T01:48:26.443Z,28.60
2022-09-26T01:51:00.689Z,28.80
2022-09-26T01:53:38.783Z,26.90
2022-09-26T01:56:10.751Z,27.30
2022-09-26T01:58:40.057Z,28.60
2022-09-26T02:01:09.537Z,28.30
2022-09-26T02:03:37.632Z,29.70
2022-09-26T02:06:05.726Z,28.70
2022-09-26T02:08:47.530Z,25.30
2022-09-26T02:11:16.142Z,27.10
2022-09-26T02:13:55.074Z,30.90
2022-09-26T02:16:26.193Z,26.90
2022-09-26T02:21:23.065Z,26.50
2022-09-26T02:23:50.226Z,28.80
2022-09-26T02:26:16.761Z,34.50
2022-09-26T02:28:43.606Z,31.00
2022-09-26T02:31:11.598Z,27.80
2022-09-26T02:33:38.008Z,29.10
2022-09-26T02:36:05.545Z,25.20
2022-09-26T02:38:31.994Z,27.60
2022-09-26T02:41:17.249Z,29.00
2022-09-26T02:43:49.909Z,26.20
2022-09-26T02:46:35.287Z,25.80
2022-09-26T02:49:07.535Z,23.60
2022-09-26T02:51:50.828Z,25.10
2022-09-26T02:54:23.578Z,24.90
2022-09-26T02:57:08.522Z,24.30
2022-09-26T02:59:47.079Z,23.80
2022-09-26T03:02:15.414Z,25.70
2022-09-26T03:04:48.889Z,28.10
2022-09-26T03:07:20.530Z,27.20
2022-09-26T03:09:48.809Z,23.20
2022-09-26T03:12:15.448Z,24.10
2022-09-26T03:14:43.073Z,28.00
2022-09-26T03:17:10.226Z,25.00
2022-09-26T03:19:53.207Z,23.70
2022-09-26T03:22:19.652Z,23.50
2022-09-26T03:24:46.177Z,25.20
2022-09-26T03:27:13.232Z,20.10
2022-09-26T03:29:39.624Z,23.70
2022-09-26T03:32:06.400Z,24.80
2022-09-26T03:34:32.984Z,27.90
2022-09-26T03:36:59.424Z,26.00
2022-09-26T03:39:25.794Z,25.90
2022-09-26T03:41:52.313Z,23.50
2022-09-26T03:44:18.861Z,24.10
2022-09-26T03:46:45.242Z,25.90
2022-09-26T03:49:11.722Z,25.90
2022-09-26T03:51:38.398Z,25.90
2022-09-26T03:54:04.811Z,23.00
2022-09-26T03:56:31.252Z,26.90
2022-09-26T03:58:57.892Z,25.40
2022-09-26T04:01:24.353Z,28.20
2022-09-26T04:03:51.558Z,28.30
2022-09-26T04:06:19.158Z,27.30
2022-09-26T04:08:46.539Z,26.80
2022-09-26T04:11:13.871Z,24.40
2022-09-26T04:13:51.278Z,26.90
2022-09-26T04:16:19.112Z,23.90
2022-09-26T04:18:45.694Z,25.80
2022-09-26T04:21:13.082Z,23.80
2022-09-26T04:23:40.280Z,24.90
2022-09-26T04:26:08.280Z,26.70
2022-09-26T04:28:35.142Z,26.70
2022-09-26T04:31:02.907Z,23.40
2022-09-26T04:33:29.691Z,23.70
2022-09-26T04:35:56.061Z,23.80
2022-09-26T04:38:22.738Z,21.90
2022-09-26T04:40:49.211Z,24.30
2022-09-26T04:43:15.822Z,23.90
2022-09-26T04:45:43.009Z,23.80
2022-09-26T04:48:10.001Z,26.60
2022-09-26T04:50:36.522Z,27.50
2022-09-26T04:53:03.322Z,25.10
2022-09-26T04:55:29.759Z,28.50
2022-09-26T04:57:56.201Z,22.20
2022-09-26T05:00:22.624Z,24.70
2022-09-26T05:02:49.083Z,26.40
2022-09-26T05:05:15.678Z,23.30
2022-09-26T05:07:42.576Z,24.10
2022-09-26T05:10:09.426Z,25.80
2022-09-26T05:12:35.864Z,23.90
2022-09-26T05:15:02.244Z,26.60
2022-09-26T05:17:28.601Z,27.90
2022-09-26T05:19:54.973Z,25.00
2022-09-26T05:22:21.528Z,24.90
2022-09-26T05:24:47.958Z,28.60
2022-09-26T05:27:14.345Z,27.10
2022-09-26T05:29:41.035Z,24.40
2022-09-26T05:32:07.464Z,24.90
2022-09-26T05:34:33.916Z,23.30
2022-09-26T05:37:00.309Z,25.10
2022-09-26T05:39:26.762Z,24.20
2022-09-26T05:41:53.738Z,23.10
2022-09-26T05:44:20.498Z,25.40
2022-09-26T05:46:47.106Z,28.20
2022-09-26T05:49:13.583Z,26.00
2022-09-26T05:51:40.046Z,26.10
2022-09-26T05:54:06.400Z,25.80
2022-09-26T05:56:33.265Z,23.00
2022-09-26T05:58:59.671Z,23.20
2022-09-26T06:01:26.241Z,28.30
2022-09-26T06:03:52.722Z,23.90
2022-09-26T06:06:19.843Z,21.70
2022-09-26T06:08:46.383Z,24.50
2022-09-26T06:11:13.936Z,24.30
2022-09-26T06:13:41.305Z,23.20
2022-09-26T06:16:10.656Z,21.40
2022-09-26T06:18:37.803Z,20.70
2022-09-26T06:21:07.999Z,26.10
2022-09-26T06:23:34.679Z,23.90
2022-09-26T06:26:01.916Z,26.20
2022-09-26T06:28:28.329Z,24.40
2022-09-26T06:30:55.224Z,22.30
2022-09-26T06:33:22.115Z,22.50
2022-09-26T06:35:59.061Z,20.20
2022-09-26T06:38:25.496Z,21.90
2022-09-26T06:40:52.272Z,21.30
2022-09-26T06:43:18.887Z,23.40
2022-09-26T06:45:45.427Z,18.40
2022-09-26T06:48:23.708Z,23.80
2022-09-26T06:50:54.906Z,21.30
2022-09-26T06:53:21.513Z,26.00
2022-09-26T06:55:48.501Z,24.70
2022-09-26T06:58:15.251Z,27.20
2022-09-26T07:00:41.997Z,26.90
2022-09-26T07:03:08.674Z,32.00
2022-09-26T07:05:36.245Z,37.40
2022-09-26T07:08:03.203Z,35.30
2022-09-26T07:10:29.802Z,37.50
2022-09-26T07:13:00.132Z,29.70
2022-09-26T07:15:26.776Z,30.00
2022-09-26T07:17:53.213Z,33.60
2022-09-26T07:20:20.449Z,37.80
2022-09-26T07:22:47.218Z,33.00
2022-09-26T07:25:13.620Z,28.50
2022-09-26T07:27:40.465Z,30.40
2022-09-26T07:30:08.132Z,21.50
2022-09-26T07:32:34.950Z,22.00
2022-09-26T07:35:01.356Z,22.90
2022-09-26T07:37:28.016Z,19.50
2022-09-26T07:39:58.186Z,19.50
2022-09-26T07:42:27.234Z,18.00
2022-09-26T07:45:20.826Z,20.00
2022-09-26T07:47:40.177Z,16.20
2022-09-26T07:50:07.023Z,17.00
2022-09-26T07:52:33.540Z,16.70
2022-09-26T07:54:59.919Z,17.30
2022-09-26T07:57:26.400Z,17.90
2022-09-26T07:59:52.789Z,16.50
2022-09-26T08:02:20.979Z,15.10
2022-09-26T08:04:48.316Z,18.80
2022-09-26T08:07:14.755Z,16.60
2022-09-26T08:09:41.452Z,16.20
2022-09-26T08:12:07.937Z,20.20
2022-09-26T08:14:34.379Z,21.10
2022-09-26T08:17:00.816Z,20.00
2022-09-26T08:19:27.256Z,17.30
2022-09-26T08:21:53.712Z,20.10
2022-09-26T08:24:20.082Z,22.50
2022-09-26T08:26:46.632Z,25.00
2022-09-26T08:29:13.043Z,24.10
2022-09-26T08:31:40.071Z,20.30
2022-09-26T08:34:07.627Z,24.90
2022-09-26T08:36:34.131Z,19.80
2022-09-26T08:39:00.601Z,18.30
2022-09-26T08:41:46.295Z,17.20
2022-09-26T08:44:15.730Z,17.60
2022-09-26T08:46:42.174Z,21.10
2022-09-26T08:49:11.445Z,21.20
2022-09-26T08:51:40.349Z,32.60
2022-09-26T08:54:12.226Z,29.00
2022-09-26T08:56:46.024Z,21.40
2022-09-26T08:59:16.542Z,23.80
2022-09-26T09:01:44.810Z,19.20
2022-09-26T09:04:21.106Z,20.50
2022-09-26T09:06:48.205Z,18.80
2022-09-26T09:09:16.276Z,16.70
2022-09-26T09:12:01.614Z,20.70
2022-09-26T09:14:28.059Z,23.60
2022-09-26T09:17:12.819Z,30.10
2022-09-26T09:19:45.136Z,32.00
2022-09-26T09:22:32.015Z,33.80
2022-09-26T09:24:59.730Z,35.80
2022-09-26T09:27:53.918Z,32.60
2022-09-26T09:30:22.620Z,33.90
2022-09-26T09:32:55.151Z,29.00
2022-09-26T09:35:28.087Z,33.40
2022-09-26T09:37:55.030Z,38.10
2022-09-26T09:40:24.989Z,33.10
2022-09-26T09:42:55.332Z,29.90
2022-09-26T09:45:25.572Z,23.40
2022-09-26T09:47:52.217Z,26.60
2022-09-26T09:50:45.323Z,26.50
2022-09-26T09:53:20.795Z,25.10
2022-09-26T09:55:53.512Z,22.70
2022-09-26T09:58:25.887Z,25.60
2022-09-26T10:01:08.432Z,25.50
2022-09-26T10:03:41.086Z,24.20
2022-09-26T10:06:10.535Z,24.40
2022-09-26T10:08:54.016Z,26.30
2022-09-26T10:11:38.363Z,31.10
2022-09-26T10:14:06.764Z,32.30
2022-09-26T10:16:33.512Z,26.50
2022-09-26T10:19:03.396Z,28.20
2022-09-26T10:21:31.935Z,24.70
2022-09-26T10:23:58.658Z,25.60
2022-09-26T10:26:30.593Z,26.80
2022-09-26T10:28:59.035Z,25.80
2022-09-26T10:31:26.932Z,30.40
2022-09-26T10:33:55.110Z,26.90
2022-09-26T10:36:28.887Z,27.10
2022-09-26T10:38:59.777Z,23.00
2022-09-26T10:41:26.237Z,24.50
2022-09-26T10:43:53.960Z,25.90
2022-09-26T10:46:22.344Z,22.50
2022-09-26T10:48:50.759Z,22.90
2022-09-26T10:51:30.055Z,26.60
2022-09-26T10:54:00.387Z,21.40
2022-09-26T10:56:28.929Z,17.80
2022-09-26T10:58:57.465Z,18.10
2022-09-26T11:01:26.037Z,16.30
2022-09-26T11:03:53.537Z,19.00
2022-09-26T11:06:33.657Z,17.30
2022-09-26T11:09:01.555Z,14.20
2022-09-26T11:11:29.776Z,21.30
2022-09-26T11:13:56.167Z,16.60
2022-09-26T11:16:23.172Z,18.90
2022-09-26T11:19:28.414Z,13.90
2022-09-26T11:21:58.596Z,10.30
2022-09-26T11:24:28.934Z,11.40
2022-09-26T11:27:10.628Z,13.60
2022-09-26T11:29:41.467Z,13.00
2022-09-26T11:32:13.538Z,11.60
2022-09-26T11:34:40.494Z,14.10
2022-09-26T11:37:13.185Z,11.80
2022-09-26T11:39:54.672Z,11.60
2022-09-26T11:42:21.313Z,10.90
2022-09-26T11:44:54.204Z,9.70
2022-09-26T11:47:20.754Z,11.60
2022-09-26T11:49:55.428Z,9.70
2022-09-26T11:52:37.009Z,9.90
2022-09-26T11:55:33.139Z,9.30
2022-09-26T11:58:26.066Z,9.00
2022-09-26T12:01:01.824Z,14.80
2022-09-26T12:03:39.099Z,11.60
2022-09-26T12:06:20.793Z,8.80
2022-09-26T12:09:06.162Z,9.40
2022-09-26T12:11:41.682Z,8.10
2022-09-26T12:14:14.207Z,6.10
2022-09-26T12:16:57.352Z,8.90
2022-09-26T12:19:32.699Z,5.80
2022-09-26T12:22:07.758Z,6.10
2022-09-26T12:24:46.745Z,7.90
2022-09-26T12:27:19.060Z,6.30
2022-09-26T12:29:52.259Z,5.60
2022-09-26T12:32:38.150Z,6.00
2022-09-26T12:35:17.794Z,4.50
2022-09-26T12:37:46.890Z,5.10
2022-09-26T12:40:31.635Z,5.30
2022-09-26T12:43:24.327Z,3.80
2022-09-26T12:45:53.632Z,3.50
2022-09-26T12:48:26.036Z,4.80
2022-09-26T12:50:58.939Z,3.90
2022-09-26T12:53:32.501Z,5.10
2022-09-26T12:56:31.515Z,6.20
2022-09-26T12:59:16.579Z,6.70
2022-09-26T13:01:50.124Z,5.40
2022-09-26T13:04:35.371Z,6.20
2022-09-26T13:07:20.650Z,8.00
2022-09-26T13:10:06.159Z,7.20
2022-09-26T13:12:39.139Z,7.80
2022-09-26T13:15:16.120Z,7.30
2022-09-26T13:17:44.506Z,7.70
2022-09-26T13:20:17.898Z,6.90
2022-09-26T13:22:47.419Z,8.70
2022-09-26T13:25:19.491Z,6.50
2022-09-26T13:27:51.477Z,7.20
2022-09-26T13:30:24.305Z,10.00
2022-09-26T13:32:54.026Z,7.10
2022-09-26T13:35:20.398Z,7.00
2022-09-26T13:37:56.666Z,5.90
2022-09-26T13:40:36.593Z,5.20
2022-09-26T13:43:12.022Z,5.50
2022-09-26T13:45:57.115Z,8.20
2022-09-26T13:48:42.886Z,5.80
2022-09-26T13:51:15.231Z,6.50
2022-09-26T13:53:46.279Z,6.50
2022-09-26T13:56:27.958Z,6.50
2022-09-26T13:59:14.902Z,6.30
2022-09-26T14:02:00.091Z,7.10
2022-09-26T14:04:34.229Z,5.60
2022-09-26T14:07:06.827Z,7.40
2022-09-26T14:09:52.752Z,6.20
2022-09-26T14:12:21.195Z,11.40
2022-09-26T14:14:52.049Z,8.10
2022-09-26T14:17:37.374Z,6.60
2022-09-26T14:20:04.940Z,9.00
2022-09-26T14:22:32.406Z,7.20
2022-09-26T14:24:59.049Z,6.30
2022-09-26T14:27:41.782Z,5.80
2022-09-26T14:30:28.698Z,4.50
2022-09-26T14:32:59.946Z,4.70
2022-09-26T14:35:35.921Z,4.30
2022-09-26T14:38:07.747Z,5.20
2022-09-26T14:40:36.434Z,4.60
2022-09-26T14:43:16.417Z,9.70
2022-09-26T14:45:53.556Z,6.20
2022-09-26T14:48:23.187Z,3.60
2022-09-26T14:50:51.445Z,5.00
2022-09-26T14:53:28.977Z,4.40
2022-09-26T14:56:03.530Z,5.80
2022-09-26T14:58:31.972Z,7.60
2022-09-26T15:01:00.903Z,6.30
2022-09-26T15:03:27.609Z,7.50
2022-09-26T15:05:54.309Z,8.60
2022-09-26T15:08:28.750Z,12.20
2022-09-26T15:10:57.131Z,11.80
2022-09-26T15:13:27.187Z,7.90
2022-09-26T15:16:00.048Z,8.50
2022-09-26T15:18:26.503Z,7.70
2022-09-26T15:21:19.029Z,8.40
2022-09-26T15:23:47.467Z,9.50
2022-09-26T15:26:15.529Z,9.00
2022-09-26T15:28:42.005Z,31.00
2022-09-26T15:31:17.744Z,33.80
2022-09-26T15:33:44.324Z,44.90
2022-09-26T15:36:11.203Z,21.30
2022-09-26T15:38:37.703Z,20.80
2022-09-26T15:41:04.330Z,21.20
2022-09-26T15:43:34.530Z,16.00
2022-09-26T15:46:04.685Z,23.70
2022-09-26T15:48:42.379Z,20.10
2022-09-26T15:51:12.752Z,15.60
2022-09-26T15:53:45.425Z,14.40
2022-09-26T15:56:13.909Z,16.30
2022-09-26T15:58:40.357Z,20.00
2022-09-26T16:01:13.766Z,21.50
2022-09-26T16:03:43.774Z,18.00
2022-09-26T16:06:21.145Z,18.40
2022-09-26T16:08:50.986Z,18.30
2022-09-26T16:11:17.429Z,25.40
2022-09-26T16:13:48.788Z,22.40
2022-09-26T16:16:20.619Z,26.00
2022-09-26T16:18:52.725Z,30.10
2022-09-26T16:21:24.383Z,28.10
2022-09-26T16:23:52.372Z,29.40
2022-09-26T16:26:25.155Z,27.50
2022-09-26T16:28:51.788Z,26.60
2022-09-26T16:31:28.583Z,29.90
2022-09-26T16:33:56.341Z,27.30
2022-09-26T16:36:24.254Z,30.30
2022-09-26T16:38:51.784Z,30.30
2022-09-26T16:41:59.973Z,26.60
2022-09-26T16:44:27.645Z,28.50
2022-09-26T16:46:58.199Z,77.00
2022-09-26T16:49:44.810Z,41.50
2022-09-26T16:52:27.434Z,102.10
2022-09-26T16:54:54.866Z,74.50
2022-09-26T16:57:23.333Z,43.10
2022-09-26T16:59:50.181Z,66.00
2022-09-26T17:02:17.056Z,46.70
2022-09-26T17:04:44.028Z,38.00
2022-09-26T17:07:12.729Z,34.30
2022-09-26T17:09:39.209Z,29.50
2022-09-26T17:12:07.742Z,39.00
2022-09-26T17:14:40.073Z,65.20
2022-09-26T17:17:08.498Z,66.50
2022-09-26T17:19:38.168Z,60.50
2022-09-26T17:22:06.901Z,59.50
2022-09-26T17:24:33.755Z,80.70
2022-09-26T17:27:04.824Z,96.40
2022-09-26T17:29:37.191Z,91.00
2022-09-26T17:32:08.834Z,69.40
2022-09-26T17:34:37.233Z,112.60
2022-09-26T17:37:04.085Z,86.90
2022-09-26T17:39:30.726Z,101.80
2022-09-26T17:41:57.269Z,87.60
2022-09-26T17:44:23.924Z,72.60
2022-09-26T17:46:54.171Z,165.50
2022-09-26T17:49:25.697Z,88.30
2022-09-26T17:51:52.643Z,70.30
2022-09-26T17:54:19.492Z,78.80
2022-09-26T17:56:46.827Z,68.70
2022-09-26T17:59:19.749Z,59.90
2022-09-26T18:01:47.591Z,82.90
2022-09-26T18:04:14.811Z,79.80
2022-09-26T18:06:41.624Z,81.60
2022-09-26T18:09:09.569Z,82.10
2022-09-26T18:11:36.345Z,76.50
2022-09-26T18:14:04.016Z,83.70
2022-09-26T18:16:30.656Z,91.50
2022-09-26T18:18:57.194Z,169.30
2022-09-26T18:21:23.938Z,115.50
2022-09-26T18:23:57.237Z,118.50
2022-09-26T18:26:26.913Z,97.70
2022-09-26T18:28:53.803Z,103.10
2022-09-26T18:31:24.374Z,104.10
2022-09-26T18:33:51.077Z,118.70
2022-09-26T18:36:18.233Z,116.70
2022-09-26T18:38:45.020Z,139.10
2022-09-26T18:41:11.930Z,131.60
2022-09-26T18:43:41.338Z,117.00
2022-09-26T18:46:10.514Z,124.20
2022-09-26T18:48:37.424Z,90.70
2022-09-26T18:51:04.337Z,104.90
2022-09-26T18:53:31.114Z,87.80
2022-09-26T18:55:57.627Z,72.70
2022-09-26T18:58:24.173Z,80.60
2022-09-26T19:00:59.995Z,77.70
2022-09-26T19:03:49.613Z,85.30
2022-09-26T19:06:17.498Z,84.20
2022-09-26T19:08:45.461Z,90.00
2022-09-26T19:11:14.700Z,114.30
2022-09-26T19:13:45.913Z,104.80
2022-09-26T19:18:40.684Z,87.90
2022-09-26T19:21:23.279Z,83.60
2022-09-26T19:23:50.542Z,80.40
2022-09-26T19:26:37.535Z,82.60
2022-09-26T19:29:09.947Z,107.70
2022-09-26T19:31:38.805Z,130.00
2022-09-26T19:34:05.448Z,101.90
2022-09-26T19:36:31.988Z,118.60
2022-09-26T19:38:58.637Z,116.50
2022-09-26T19:41:25.492Z,128.70
2022-09-26T19:43:52.023Z,214.60
2022-09-26T19:46:24.532Z,163.20
2022-09-26T19:48:51.252Z,137.40
2022-09-26T19:51:17.792Z,128.70
2022-09-26T19:53:44.540Z,120.50
2022-09-26T19:56:11.239Z,111.50
2022-09-26T19:58:37.835Z,106.30
2022-09-26T20:01:13.016Z,102.40
2022-09-26T20:03:39.618Z,96.60
2022-09-26T20:06:17.222Z,99.50
2022-09-26T20:08:43.661Z,108.40
2022-09-26T20:11:11.543Z,99.70
2022-09-26T20:13:37.943Z,96.20
2022-09-26T20:16:04.512Z,86.50
2022-09-26T20:18:31.168Z,102.90
2022-09-26T20:20:58.616Z,93.10
2022-09-26T20:23:26.084Z,108.70
2022-09-26T20:25:53.562Z,99.90
2022-09-26T20:28:20.305Z,97.60
2022-09-26T20:30:46.831Z,102.10
2022-09-26T20:33:13.890Z,92.40
2022-09-26T20:35:42.235Z,86.00
2022-09-26T20:38:27.454Z,90.40
2022-09-26T20:40:57.504Z,101.50
2022-09-26T20:43:27.674Z,128.30
2022-09-26T20:45:54.212Z,129.10
2022-09-26T20:48:25.386Z,121.70
2022-09-26T20:50:51.837Z,113.00
2022-09-26T20:53:19.200Z,116.20
2022-09-26T20:55:46.563Z,93.70
2022-09-26T20:58:13.446Z,87.80
2022-09-26T21:00:40.770Z,93.30
2022-09-26T21:03:07.413Z,85.80
2022-09-26T21:05:34.158Z,82.60
2022-09-26T21:08:00.898Z,77.30
2022-09-26T21:10:27.276Z,71.30
2022-09-26T21:12:53.742Z,69.60
2022-09-26T21:15:21.352Z,70.10
2022-09-26T21:17:48.198Z,68.80
2022-09-26T21:20:20.711Z,77.90
2022-09-26T21:22:47.455Z,80.30
2022-09-26T21:25:15.307Z,73.40
2022-09-26T21:27:41.868Z,60.90
2022-09-26T21:30:12.743Z,53.70
2022-09-26T21:32:42.838Z,51.10
2022-09-26T21:35:09.533Z,55.90
2022-09-26T21:37:35.998Z,46.10
2022-09-26T21:40:02.876Z,45.30
2022-09-26T21:42:29.589Z,44.10
2022-09-26T21:44:58.941Z,45.70
2022-09-26T21:47:25.612Z,44.50
2022-09-26T21:49:52.276Z,41.80
2022-09-26T21:52:27.075Z,42.70
2022-09-26T21:54:53.662Z,44.40
2022-09-26T21:57:23.591Z,49.00
2022-09-26T21:59:51.246Z,61.90
2022-09-26T22:02:17.777Z,59.20
2022-09-26T22:04:44.449Z,54.80
2022-09-26T22:07:11.079Z,55.30
2022-09-26T22:09:37.503Z,59.90
2022-09-26T22:12:03.895Z,57.60
2022-09-26T22:14:30.505Z,59.70
2022-09-26T22:16:56.961Z,50.40
2022-09-26T22:19:23.584Z,50.60
2022-09-26T22:21:50.423Z,55.50
2022-09-26T22:24:16.964Z,48.90
2022-09-26T22:26:43.341Z,46.50
2022-09-26T22:29:09.852Z,43.20
2022-09-26T22:31:36.606Z,47.60
2022-09-26T22:34:03.040Z,46.80
2022-09-26T22:36:29.538Z,45.70
2022-09-26T22:38:56.017Z,48.20
2022-09-26T22:41:22.467Z,32.40
2022-09-26T22:43:50.975Z,31.20
2022-09-26T22:46:17.536Z,39.30
2022-09-26T22:48:45.289Z,47.50
2022-09-26T22:51:12.293Z,52.30
2022-09-26T22:53:39.645Z,72.80
2022-09-26T22:56:07.809Z,67.20
2022-09-26T22:58:36.799Z,70.40
2022-09-26T23:01:04.817Z,44.90
2022-09-26T23:03:31.457Z,45.40
2022-09-26T23:05:57.906Z,41.80
2022-09-26T23:08:24.438Z,46.50
2022-09-26T23:10:51.398Z,41.60
2022-09-26T23:13:18.579Z,42.30
2022-09-26T23:15:45.298Z,44.70
2022-09-26T23:18:12.182Z,44.30
2022-09-26T23:20:42.306Z,43.70
2022-09-26T23:23:09.745Z,48.50
2022-09-26T23:25:36.795Z,51.70
2022-09-26T23:28:03.850Z,71.00
2022-09-26T23:30:30.352Z,67.30
2022-09-26T23:32:56.863Z,64.40
2022-09-26T23:35:23.357Z,75.10
2022-09-26T23:37:49.928Z,68.30
2022-09-26T23:40:16.618Z,63.50
2022-09-26T23:42:43.137Z,57.90
2022-09-26T23:45:10.185Z,58.10
2022-09-26T23:47:36.571Z,59.70
2022-09-26T23:50:03.141Z,50.80
2022-09-26T23:52:30.117Z,47.90
2022-09-26T23:54:56.513Z,52.00
2022-09-26T23:57:23.448Z,49.80
2022-09-26T23:59:50.030Z,50.30
